Terminal Aerodrome Forecast
Issued by NWS

Home | Current Version | Previous Version | Text Only | Print | Product List | Glossary On
Versions: 1 2 3 4 5 6 7 8 9 10 11 12 13 14 15 16 17 18 19 20 21 22 23 24 25 26 27 28 29 30 31 32
000
FTAK31 PAFA 152338
TAFAOM
TAF
PAOM 152338Z 1600/1624 31006KT P6SM FEW070 OVC090
     FM160400 11008KT P6SM VCSH SCT040 OVC080
     FM160900 02005KT P6SM VCSH BKN040 BKN100
     FM161600 01007KT P6SM -SHRA OVC020=

USA.gov is the U.S. government's official web portal to all federal, state and local government web resources and services.